Map

Track Data

SID SEASON NUMBER BASIN SUBBASIN NAME ISO_TIME NATURE LAT LON WMO_WIND WMO_PRES WMO_AGENCY TRACK_TYPE DIST2LAND LANDFALL IFLAG USA_AGENCY USA_ATCF_ID USA_LAT USA_LON USA_RECORD USA_STATUS USA_WIND USA_PRES USA_SSHS USA_R34_NE USA_R34_SE USA_R34_SW USA_R34_NW USA_R50_NE USA_R50_SE USA_R50_SW USA_R50_NW USA_R64_NE USA_R64_SE USA_R64_SW USA_R64_NW USA_POCI USA_ROCI USA_RMW USA_EYE TOKYO_LAT TOKYO_LON TOKYO_GRADE TOKYO_WIND TOKYO_PRES TOKYO_R50_DIR TOKYO_R50_LONG TOKYO_R50_SHORT TOKYO_R30_DIR TOKYO_R30_LONG TOKYO_R30_SHORT TOKYO_LAND CMA_LAT CMA_LON CMA_CAT CMA_WIND CMA_PRES HKO_LAT HKO_LON HKO_CAT HKO_WIND HKO_PRES NEWDELHI_LAT NEWDELHI_LON NEWDELHI_GRADE NEWDELHI_WIND NEWDELHI_PRES NEWDELHI_CI NEWDELHI_DP NEWDELHI_POCI REUNION_LAT REUNION_LON REUNION_TYPE REUNION_WIND REUNION_PRES REUNION_TNUM REUNION_CI REUNION_RMW REUNION_R34_NE REUNION_R34_SE REUNION_R34_SW REUNION_R34_NW REUNION_R50_NE REUNION_R50_SE REUNION_R50_SW REUNION_R50_NW REUNION_R64_NE REUNION_R64_SE REUNION_R64_SW REUNION_R64_NW BOM_LAT BOM_LON BOM_TYPE BOM_WIND BOM_PRES BOM_TNUM BOM_CI BOM_RMW BOM_R34_NE BOM_R34_SE BOM_R34_SW BOM_R34_NW BOM_R50_NE BOM_R50_SE BOM_R50_SW BOM_R50_NW BOM_R64_NE BOM_R64_SE BOM_R64_SW BOM_R64_NW BOM_ROCI BOM_POCI BOM_EYE BOM_POS_METHOD BOM_PRES_METHOD NADI_LAT NADI_LON NADI_CAT NADI_WIND NADI_PRES WELLINGTON_LAT WELLINGTON_LON WELLINGTON_WIND WELLINGTON_PRES DS824_LAT DS824_LON DS824_STAGE DS824_WIND DS824_PRES TD9636_LAT TD9636_LON TD9636_STAGE TD9636_WIND TD9636_PRES TD9635_LAT TD9635_LON TD9635_WIND TD9635_PRES TD9635_ROCI NEUMANN_LAT NEUMANN_LON NEUMANN_CLASS NEUMANN_WIND NEUMANN_PRES MLC_LAT MLC_LON MLC_CLASS MLC_WIND MLC_PRES USA_GUST BOM_GUST BOM_GUST_PER REUNION_GUST REUNION_GUST_PER USA_SEAHGT USA_SEARAD_NE USA_SEARAD_SE USA_SEARAD_SW USA_SEARAD_NW STORM_SPEED STORM_DIR
1947028S14059 1947 9 SI MM NOT_NAMED 1947-01-28 06:00:00 NR -14.3000 59.3000 reunion main 670 652 _____O________ -1 -14.3000 59.3000 99 9.90000 4 143
1947028S14059 1947 9 SI MM NOT_NAMED 1947-01-28 09:00:00 NR -14.4661 59.4280 main 652 644 _____P________ -1 -14.4661 59.4280 99 4 144
1947028S14059 1947 9 SI MM NOT_NAMED 1947-01-28 12:00:00 NR -14.6378 59.5534 main 647 626 _____P________ -1 -14.6378 59.5534 99 4 146
1947028S14059 1947 9 SI MM NOT_NAMED 1947-01-28 15:00:00 NR -14.8206 59.6735 main 629 608 _____P________ -1 -14.8206 59.6735 99 4 150
1947028S14059 1947 9 SI MM NOT_NAMED 1947-01-28 18:00:00 NR -15.0203 59.7857 main 612 591 _____P________ -1 -15.0203 59.7857 99 5 154
1947028S14059 1947 9 SI MM NOT_NAMED 1947-01-28 21:00:00 NR -15.2424 59.8871 main 595 569 _____P________ -1 -15.2424 59.8871 99 5 159
1947028S14059 1947 9 SI MM NOT_NAMED 1947-01-29 00:00:00 NR -15.4926 59.9752 main 569 539 _____P________ -1 -15.4926 59.9752 99 6 164
1947028S14059 1947 9 SI MM NOT_NAMED 1947-01-29 03:00:00 NR -15.7766 60.0470 main 539 514 _____P________ -1 -15.7766 60.0470 99 6 169
1947028S14059 1947 9 SI MM NOT_NAMED 1947-01-29 06:00:00 NR -16.1000 60.1000 reunion main 514 485 _____O________ -1 -16.1000 60.1000 99 9.90000 7 174
1947028S14059 1947 9 SI MM NOT_NAMED 1947-01-29 09:00:00 NR -16.4666 60.1326 main 475 447 _____P________ -1 -16.4666 60.1326 99 8 177
1947028S14059 1947 9 SI MM NOT_NAMED 1947-01-29 12:00:00 NR -16.8723 60.1488 main 438 409 _____P________ -1 -16.8723 60.1488 99 9 179
1947028S14059 1947 9 SI MM NOT_NAMED 1947-01-29 15:00:00 NR -17.3114 60.1538 main 409 367 _____P________ -1 -17.3114 60.1538 99 9 179
1947028S14059 1947 9 SI MM NOT_NAMED 1947-01-29 18:00:00 NR -17.7778 60.1530 main 367 337 _____P________ -1 -17.7778 60.1530 99 10 181
1947028S14059 1947 9 SI MM NOT_NAMED 1947-01-29 21:00:00 NR -18.2658 60.1518 main 330 305 _____P________ -1 -18.2658 60.1518 99 10 0
1947028S14059 1947 9 SI MM NOT_NAMED 1947-01-30 00:00:00 NR -18.7694 60.1556 main 299 274 _____P________ -1 -18.7694 60.1556 99 10 179
1947028S14059 1947 9 SI MM NOT_NAMED 1947-01-30 03:00:00 NR -19.2827 60.1698 main 274 256 _____P________ -1 -19.2827 60.1698 99 10 177
1947028S14059 1947 9 SI MM NOT_NAMED 1947-01-30 06:00:00 NR -19.8000 60.2000 reunion main 256 250 _____O________ -1 -19.8000 60.2000 99 9.90000 11 176
1947028S14059 1947 9 SI MM NOT_NAMED 1947-01-30 09:00:00 NR -20.3338 60.2555 main 260 260 _____P________ -1 -20.3338 60.2555 99 11 174
1947028S14059 1947 9 SI MM NOT_NAMED 1947-01-30 12:00:00 NR -20.8810 60.3244 main 268 268 _____P________ -1 -20.8810 60.3244 99 11 173
1947028S14059 1947 9 SI MM NOT_NAMED 1947-01-30 15:00:00 NR -21.4320 60.4065 main 296 296 _____P________ -1 -21.4320 60.4065 99 11 172
1947028S14059 1947 9 SI MM NOT_NAMED 1947-01-30 18:00:00 NR -21.9769 60.5013 main 335 335 _____P________ -1 -21.9769 60.5013 99 11 170
1947028S14059 1947 9 SI MM NOT_NAMED 1947-01-30 21:00:00 NR -22.5059 60.6085 main 374 374 _____P________ -1 -22.5059 60.6085 99 11 169
1947028S14059 1947 9 SI MM NOT_NAMED 1947-01-31 00:00:00 NR -23.0093 60.7277 main 417 417 _____P________ -1 -23.0093 60.7277 99 10 167
1947028S14059 1947 9 SI MM NOT_NAMED 1947-01-31 03:00:00 NR -23.4773 60.8584 main 470 470 _____P________ -1 -23.4773 60.8584 99 9 164
1947028S14059 1947 9 SI MM NOT_NAMED 1947-01-31 06:00:00 NR -23.9000 61.0000 reunion main 509 509 _____O________ -1 -23.9000 61.0000 99 9.90000 8 161
1947028S14059 1947 9 SI MM NOT_NAMED 1947-01-31 09:00:00 NR -24.2705 61.1519 main 556 556 _____P________ -1 -24.2705 61.1519 99 8 158
1947028S14059 1947 9 SI MM NOT_NAMED 1947-01-31 12:00:00 NR -24.5929 61.3129 main 588 588 _____P________ -1 -24.5929 61.3129 99 7 154
1947028S14059 1947 9 SI MM NOT_NAMED 1947-01-31 15:00:00 NR -24.8740 61.4817 main 627 627 _____P________ -1 -24.8740 61.4817 99 6 149
1947028S14059 1947 9 SI MM NOT_NAMED 1947-01-31 18:00:00 NR -25.1207 61.6571 main 657 657 _____P________ -1 -25.1207 61.6571 99 6 145
1947028S14059 1947 9 SI MM NOT_NAMED 1947-01-31 21:00:00 NR -25.3398 61.8378 main 681 681 _____P________ -1 -25.3398 61.8378 99 5 142
1947028S14059 1947 9 SI MM NOT_NAMED 1947-02-01 00:00:00 NR -25.5382 62.0227 main 711 711 _____P________ -1 -25.5382 62.0227 99 5 139
1947028S14059 1947 9 SI MM NOT_NAMED 1947-02-01 03:00:00 NR -25.7226 62.2105 main 741 741 _____P________ -1 -25.7226 62.2105 99 5 137
1947028S14059 1947 9 SI MM NOT_NAMED 1947-02-01 06:00:00 NR -25.9000 62.4000 reunion main 771 _____O________ -1 -25.9000 62.4000 99 9.90000 5 136

About IBTrACS Database

This database is a web-friendly format of International Best Track Archive for Climate Stewardship (IBTrACS), a global best track data archive curated by NOAA dating back to 1842.

Updated: 2021-12-01